Time;durP1;ratioP1;P1;durP2;ratioP2;P2;SDS_P1;SDS_P2;PMS_P1;PMS_P2;Temp;Humidity;BMP_temperature;BMP_pressure;BME280_temperature;BME280_humidity;BME280_pressure;Samples;Min_cycle;Max_cycle;Signal;HPM_P1;HPM_P2
2022/09/21 00:01:49;;;;;;;;;;;16.10;99.90;;;;;;4982913;28;19917;-78
2022/09/21 00:04:37;;;;;;;;;;;16.20;99.90;;;;;;4988593;28;19917;-79
2022/09/21 00:07:06;;;;;;;;;;;16.20;99.90;;;;;;4991507;28;19910;-78
2022/09/21 00:09:34;;;;;;;;;;;16.20;99.90;;;;;;4989600;28;19917;-79
2022/09/21 00:12:08;;;;;;;;;;;16.20;99.90;;;;;;4990093;28;19913;-79
2022/09/21 00:14:34;;;;;;;;;;;16.20;99.90;;;;;;4989738;28;19951;-79
2022/09/21 00:17:02;;;;;;;;;;;16.20;99.90;;;;;;4989526;28;19924;-79
2022/09/21 00:19:28;;;;;;;;;;;16.20;99.90;;;;;;4989619;28;20627;-79
2022/09/21 00:21:54;;;;;;;;;;;16.30;99.90;;;;;;4990396;28;20004;-79
2022/09/21 00:24:20;;;;;;;;;;;16.30;99.90;;;;;;4972300;28;19913;-79
2022/09/21 00:26:46;;;;;;;;;;;16.40;99.90;;;;;;4970186;28;19917;-79
2022/09/21 00:29:12;;;;;;;;;;;16.30;99.90;;;;;;4970658;28;19949;-78
2022/09/21 00:31:38;;;;;;;;;;;16.20;99.90;;;;;;4977693;28;20241;-78
2022/09/21 00:34:06;;;;;;;;;;;16.20;99.90;;;;;;4991401;28;19921;-79
2022/09/21 00:36:32;;;;;;;;;;;16.10;99.90;;;;;;4989406;28;20371;-79
2022/09/21 00:39:02;;;;;;;;;;;16.10;99.90;;;;;;4990178;28;20007;-79
2022/09/21 00:41:29;;;;;;;;;;;16.10;99.90;;;;;;4972629;28;20315;-79
2022/09/21 00:44:16;;;;;;;;;;;16.00;99.90;;;;;;4997929;28;19910;-78
2022/09/21 00:46:44;;;;;;;;;;;16.00;99.90;;;;;;4987002;28;19910;-78
2022/09/21 00:49:10;;;;;;;;;;;16.10;99.90;;;;;;4989640;28;19921;-78
2022/09/21 00:51:36;;;;;;;;;;;16.00;99.90;;;;;;4990434;28;19910;-79
2022/09/21 00:54:08;;;;;;;;;;;16.00;99.90;;;;;;4989364;28;19928;-80
2022/09/21 00:56:35;;;;;;;;;;;16.10;99.90;;;;;;4989110;28;20374;-79
2022/09/21 00:59:04;;;;;;;;;;;16.10;99.90;;;;;;4973117;28;19910;-78
2022/09/21 01:01:35;;;;;;;;;;;16.00;99.90;;;;;;4989354;28;19968;-80
2022/09/21 01:04:18;;;;;;;;;;;15.90;99.90;;;;;;4972042;28;20356;-79
2022/09/21 01:06:50;;;;;;;;;;;15.90;99.90;;;;;;4990179;28;20033;-78
2022/09/21 01:09:20;;;;;;;;;;;15.90;99.90;;;;;;4990411;28;19940;-78
2022/09/21 01:11:53;;;;;;;;;;;16.00;99.90;;;;;;4989703;28;19914;-78
2022/09/21 01:14:31;;;;;;;;;;;16.00;99.90;;;;;;4989512;28;20431;-79
2022/09/21 01:17:12;;;;;;;;;;;16.10;99.90;;;;;;4991163;28;19910;-79
2022/09/21 01:20:02;;;;;;;;;;;16.10;99.90;;;;;;4990393;28;19910;-79
2022/09/21 01:22:28;;;;;;;;;;;16.10;99.90;;;;;;4986746;28;19945;-79
2022/09/21 01:25:30;;;;;;;;;;;16.10;99.90;;;;;;4994410;28;19917;-78
2022/09/21 01:28:11;;;;;;;;;;;16.10;99.90;;;;;;4901896;29;20425;-79
2022/09/21 01:30:38;;;;;;;;;;;16.10;99.90;;;;;;4981637;28;19917;-79
2022/09/21 01:33:16;;;;;;;;;;;16.20;99.90;;;;;;4992315;28;19953;-79
2022/09/21 01:35:48;;;;;;;;;;;16.20;99.90;;;;;;4975551;28;20009;-79
2022/09/21 01:38:16;;;;;;;;;;;16.10;99.90;;;;;;4990478;28;19917;-79
2022/09/21 01:40:44;;;;;;;;;;;16.10;99.90;;;;;;4996799;28;19916;-79
2022/09/21 01:43:42;;;;;;;;;;;16.20;99.90;;;;;;4975865;28;19939;-79
2022/09/21 01:46:14;;;;;;;;;;;16.10;99.90;;;;;;4981577;28;19910;-79
2022/09/21 01:48:43;;;;;;;;;;;16.20;99.90;;;;;;4976442;28;19935;-79
2022/09/21 01:51:47;;;;;;;;;;;;;;;;;;;;;
2022/09/21 01:54:11;;;;;;;;;;;16.20;99.90;;;;;;4993212;28;20321;-81
2022/09/21 01:56:42;;;;;;;;;;;16.10;99.90;;;;;;4975850;28;19929;-79
2022/09/21 01:59:11;;;;;;;;;;;16.10;99.90;;;;;;4987934;28;19910;-79
2022/09/21 02:01:44;;;;;;;;;;;16.00;99.90;;;;;;4989847;28;19909;-79
2022/09/21 02:04:11;;;;;;;;;;;15.90;99.90;;;;;;4994862;28;19922;-78
2022/09/21 02:06:39;;;;;;;;;;;15.80;99.90;;;;;;4998067;28;19949;-79
2022/09/21 02:09:04;;;;;;;;;;;15.80;99.90;;;;;;4983466;28;19928;-79
2022/09/21 02:11:30;;;;;;;;;;;15.70;99.90;;;;;;5001149;28;19925;-79
2022/09/21 02:13:56;;;;;;;;;;;15.60;99.90;;;;;;5000485;28;19925;-79
2022/09/21 02:16:33;;;;;;;;;;;15.60;99.90;;;;;;4983840;28;19906;-79
2022/09/21 02:22:28;;;;;;;;;;;15.50;99.90;;;;;;4995497;28;19925;-79
2022/09/21 02:25:29;;;;;;;;;;;15.40;99.90;;;;;;4998241;28;19916;-79
2022/09/21 02:28:00;;;;;;;;;;;15.40;99.90;;;;;;4979467;28;19920;-79
2022/09/21 02:30:35;;;;;;;;;;;15.40;99.90;;;;;;4983154;28;20260;-80
2022/09/21 02:33:01;;;;;;;;;;;15.40;99.90;;;;;;4986130;28;19945;-79
2022/09/21 02:39:01;;;;;;;;;;;15.30;99.90;;;;;;4920938;29;19917;-79
2022/09/21 02:41:35;;;;;;;;;;;15.20;99.90;;;;;;4993164;28;19910;-81
2022/09/21 02:44:08;;;;;;;;;;;15.00;99.90;;;;;;4984161;28;19906;-79
2022/09/21 02:46:37;;;;;;;;;;;14.90;99.90;;;;;;4996181;28;19910;-79
2022/09/21 02:49:22;;;;;;;;;;;14.80;99.90;;;;;;4994386;28;19982;-78
2022/09/21 02:51:49;;;;;;;;;;;14.90;99.90;;;;;;4982394;28;19956;-79
2022/09/21 02:54:38;;;;;;;;;;;14.80;99.90;;;;;;4991715;28;19910;-79
2022/09/21 02:57:04;;;;;;;;;;;14.70;99.90;;;;;;4994399;28;19913;-79
2022/09/21 03:02:52;;;;;;;;;;;14.90;99.90;;;;;;4990904;28;19917;-79
2022/09/21 03:05:23;;;;;;;;;;;14.90;99.90;;;;;;4986560;28;19909;-79
2022/09/21 03:07:49;;;;;;;;;;;14.90;99.90;;;;;;4995519;28;19914;-80
2022/09/21 03:10:15;;;;;;;;;;;15.00;99.90;;;;;;4974895;28;19971;-79
2022/09/21 03:12:44;;;;;;;;;;;15.00;99.90;;;;;;4992622;28;19910;-78
2022/09/21 03:15:25;;;;;;;;;;;;;;;;;;;;;
2022/09/21 03:21:15;;;;;;;;;;;14.70;99.90;;;;;;4904261;29;19919;-78
2022/09/21 03:24:01;;;;;;;;;;;14.60;99.90;;;;;;4978148;28;20368;-79
2022/09/21 03:26:28;;;;;;;;;;;14.60;99.90;;;;;;4995078;28;19916;-78
2022/09/21 03:28:54;;;;;;;;;;;14.70;99.90;;;;;;4992159;28;19913;-79
2022/09/21 03:31:21;;;;;;;;;;;14.60;99.90;;;;;;4989381;28;20421;-78
2022/09/21 03:33:59;;;;;;;;;;;14.50;99.90;;;;;;4973874;28;20813;-78
2022/09/21 03:36:25;;;;;;;;;;;14.40;99.90;;;;;;4988417;28;20380;-78
2022/09/21 03:38:57;;;;;;;;;;;14.40;99.90;;;;;;4988671;28;19910;-79
2022/09/21 03:41:38;;;;;;;;;;;14.30;99.90;;;;;;4972068;28;20295;-79
2022/09/21 03:44:04;;;;;;;;;;;14.20;99.90;;;;;;4988860;28;19941;-79
2022/09/21 03:46:31;;;;;;;;;;;14.10;99.90;;;;;;4972701;28;19917;-79
2022/09/21 03:48:56;;;;;;;;;;;14.00;99.90;;;;;;4972382;28;19925;-78
2022/09/21 03:51:22;;;;;;;;;;;13.90;99.90;;;;;;4989157;28;19910;-78
2022/09/21 03:53:53;;;;;;;;;;;13.90;99.90;;;;;;4998326;28;20022;-79
2022/09/21 03:59:29;;;;;;;;;;;13.70;99.90;;;;;;4987672;28;19991;-79
2022/09/21 04:02:01;;;;;;;;;;;13.70;99.90;;;;;;4990022;28;20427;-79
2022/09/21 04:04:51;;;;;;;;;;;13.60;99.90;;;;;;4973790;28;19933;-78
2022/09/21 04:07:16;;;;;;;;;;;13.70;99.90;;;;;;4986003;28;19910;-79
2022/09/21 04:09:42;;;;;;;;;;;13.60;99.90;;;;;;4987906;28;20350;-79
2022/09/21 04:12:13;;;;;;;;;;;13.60;99.90;;;;;;4990048;28;19922;-80
2022/09/21 04:18:32;;;;;;;;;;;13.60;99.90;;;;;;4949726;28;19914;-79
2022/09/21 04:20:58;;;;;;;;;;;13.50;99.90;;;;;;4920101;28;19988;-81
2022/09/21 04:23:23;;;;;;;;;;;13.40;99.90;;;;;;4955157;28;19910;-79
2022/09/21 04:25:52;;;;;;;;;;;13.30;99.90;;;;;;4959722;28;19910;-79
2022/09/21 04:28:18;;;;;;;;;;;13.30;99.90;;;;;;4989838;28;19914;-79
2022/09/21 04:30:44;;;;;;;;;;;13.20;99.90;;;;;;4972828;28;19956;-79
2022/09/21 04:33:10;;;;;;;;;;;13.20;99.90;;;;;;4991655;28;19917;-78
2022/09/21 04:35:38;;;;;;;;;;;13.30;99.90;;;;;;4991363;28;19924;-79
2022/09/21 04:38:04;;;;;;;;;;;13.30;99.90;;;;;;4990465;28;19917;-79
2022/09/21 04:40:39;;;;;;;;;;;13.50;99.90;;;;;;4991193;28;19913;-80
2022/09/21 04:43:05;;;;;;;;;;;13.30;99.90;;;;;;4996157;28;19910;-79
2022/09/21 04:45:40;;;;;;;;;;;13.40;99.90;;;;;;4996464;28;19920;-78
2022/09/21 04:48:09;;;;;;;;;;;13.60;99.90;;;;;;4981137;28;19924;-79
2022/09/21 04:50:36;;;;;;;;;;;13.80;99.90;;;;;;4997170;28;19916;-78
2022/09/21 04:53:08;;;;;;;;;;;13.90;99.90;;;;;;4997596;28;20434;-79
2022/09/21 04:55:34;;;;;;;;;;;13.90;99.90;;;;;;4968948;28;19928;-78
2022/09/21 04:58:00;;;;;;;;;;;13.90;99.90;;;;;;4993743;28;20361;-79
2022/09/21 05:00:26;;;;;;;;;;;13.90;99.90;;;;;;4991201;28;19910;-79
2022/09/21 05:02:52;;;;;;;;;;;13.90;99.90;;;;;;4989164;28;19910;-80
2022/09/21 05:08:05;;;;;;;;;;;14.10;99.90;;;;;;4996971;28;19943;-79
2022/09/21 05:10:36;;;;;;;;;;;14.10;99.90;;;;;;4997243;28;19916;-79
2022/09/21 05:13:02;;;;;;;;;;;14.10;99.90;;;;;;4989794;28;20354;-79
2022/09/21 05:15:28;;;;;;;;;;;14.10;99.90;;;;;;4989348;28;20061;-78
2022/09/21 05:23:40;;;;;;;;;;;13.80;99.90;;;;;;4988342;28;19910;-79
2022/09/21 05:26:32;;;;;;;;;;;13.80;99.90;;;;;;4990323;28;20161;-78
2022/09/21 05:28:58;;;;;;;;;;;13.80;99.90;;;;;;4977579;28;19933;-79
2022/09/21 05:31:39;;;;;;;;;;;13.80;99.90;;;;;;4990036;28;20269;-79
2022/09/21 05:34:11;;;;;;;;;;;13.60;99.90;;;;;;4987176;28;19920;-78
2022/09/21 05:37:13;;;;;;;;;;;;;;;;;;;;;
2022/09/21 05:39:40;;;;;;;;;;;13.60;99.90;;;;;;4993201;28;19916;-78
2022/09/21 05:42:06;;;;;;;;;;;13.70;99.90;;;;;;4977316;28;20071;-78
2022/09/21 05:44:34;;;;;;;;;;;13.80;99.90;;;;;;4991278;28;19917;-79
2022/09/21 05:47:25;;;;;;;;;;;13.80;99.90;;;;;;4991976;28;19929;-79
2022/09/21 05:50:04;;;;;;;;;;;13.90;99.90;;;;;;4933169;28;19917;-79
2022/09/21 05:52:33;;;;;;;;;;;13.80;99.90;;;;;;4998486;28;19949;-79
2022/09/21 05:55:08;;;;;;;;;;;13.70;99.90;;;;;;4982948;28;19910;-79
2022/09/21 05:57:36;;;;;;;;;;;13.70;99.90;;;;;;5000052;28;19909;-78
2022/09/21 06:00:11;;;;;;;;;;;13.70;99.90;;;;;;4982563;28;19917;-78
2022/09/21 06:02:45;;;;;;;;;;;13.70;99.90;;;;;;4989973;28;19916;-78
2022/09/21 06:05:12;;;;;;;;;;;13.70;99.90;;;;;;4985131;28;20012;-79
2022/09/21 06:07:39;;;;;;;;;;;13.80;99.90;;;;;;4973883;28;19921;-79
2022/09/21 06:10:05;;;;;;;;;;;14.00;99.90;;;;;;4971599;28;19945;-80
2022/09/21 06:12:51;;;;;;;;;;;14.20;99.90;;;;;;4998917;28;19914;-79
2022/09/21 06:15:16;;;;;;;;;;;14.60;99.90;;;;;;5000490;28;19909;-79
2022/09/21 06:17:42;;;;;;;;;;;14.90;99.90;;;;;;4996699;28;19918;-79
2022/09/21 06:20:08;;;;;;;;;;;15.10;99.90;;;;;;4973827;28;19916;-79
2022/09/21 06:22:34;;;;;;;;;;;15.10;99.90;;;;;;4969437;28;19910;-79
2022/09/21 06:25:00;;;;;;;;;;;15.20;99.90;;;;;;4997015;28;19925;-80
2022/09/21 06:27:27;;;;;;;;;;;15.30;99.90;;;;;;4975871;28;20168;-77
2022/09/21 06:29:52;;;;;;;;;;;15.40;99.90;;;;;;4981570;28;19916;-77
2022/09/21 06:32:18;;;;;;;;;;;15.50;99.90;;;;;;4980328;28;19906;-77
2022/09/21 06:34:44;;;;;;;;;;;15.60;99.90;;;;;;4996146;28;19981;-76
2022/09/21 06:37:09;;;;;;;;;;;15.40;99.90;;;;;;4990272;28;19917;-76
2022/09/21 06:39:35;;;;;;;;;;;15.30;99.90;;;;;;4992927;28;20294;-77
2022/09/21 06:42:31;;;;;;;;;;;15.30;99.90;;;;;;4988351;28;19973;-77
2022/09/21 06:44:56;;;;;;;;;;;15.30;99.90;;;;;;4993033;28;19971;-77
2022/09/21 06:47:21;;;;;;;;;;;15.40;99.90;;;;;;4978653;28;19909;-77
2022/09/21 06:49:47;;;;;;;;;;;15.50;99.90;;;;;;4992143;28;19916;-77
2022/09/21 06:52:13;;;;;;;;;;;15.40;99.90;;;;;;4994520;28;20093;-77
2022/09/21 06:54:42;;;;;;;;;;;15.40;99.90;;;;;;4993785;28;20186;-76
2022/09/21 06:57:07;;;;;;;;;;;15.30;99.90;;;;;;4992489;28;20346;-76
2022/09/21 06:59:33;;;;;;;;;;;15.40;99.90;;;;;;4994873;28;19952;-76
2022/09/21 07:01:59;;;;;;;;;;;15.50;99.90;;;;;;4990950;28;19909;-76
2022/09/21 07:04:24;;;;;;;;;;;15.60;99.90;;;;;;4979074;28;19952;-76
2022/09/21 07:06:50;;;;;;;;;;;15.70;99.90;;;;;;4997516;28;19913;-76
2022/09/21 07:09:16;;;;;;;;;;;15.70;99.90;;;;;;4993759;28;20287;-76
2022/09/21 07:11:42;;;;;;;;;;;15.80;99.90;;;;;;4986101;28;19917;-76
2022/09/21 07:14:07;;;;;;;;;;;16.00;99.90;;;;;;4971707;28;20000;-71
2022/09/21 07:16:33;;;;;;;;;;;16.00;99.90;;;;;;4983098;28;20017;-71
2022/09/21 07:18:59;;;;;;;;;;;16.10;99.90;;;;;;4984669;28;19909;-72
2022/09/21 07:21:25;;;;;;;;;;;16.20;99.90;;;;;;4990681;28;19914;-73
2022/09/21 07:23:51;;;;;;;;;;;16.10;99.90;;;;;;4986824;28;19923;-71
2022/09/21 07:26:16;;;;;;;;;;;16.10;99.90;;;;;;4989877;28;19917;-71
2022/09/21 07:28:42;;;;;;;;;;;16.10;99.90;;;;;;4986092;28;20383;-71
2022/09/21 07:31:15;;;;;;;;;;;16.00;99.90;;;;;;4989466;28;19922;-71
2022/09/21 07:33:41;;;;;;;;;;;16.10;99.90;;;;;;4984376;28;19921;-71
2022/09/21 07:36:11;;;;;;;;;;;16.20;99.90;;;;;;4989126;28;19906;-72
2022/09/21 07:38:46;;;;;;;;;;;16.40;99.90;;;;;;4994174;28;20198;-72
2022/09/21 07:41:21;;;;;;;;;;;16.50;99.90;;;;;;4993958;28;19961;-72
2022/09/21 07:43:47;;;;;;;;;;;16.60;99.90;;;;;;4994227;28;19910;-71
2022/09/21 07:46:22;;;;;;;;;;;16.40;99.90;;;;;;4993531;28;19906;-72
2022/09/21 07:48:51;;;;;;;;;;;16.40;99.90;;;;;;4995000;28;19936;-71
2022/09/21 07:51:22;;;;;;;;;;;16.40;99.90;;;;;;4993962;28;19917;-72
2022/09/21 07:53:57;;;;;;;;;;;16.50;99.90;;;;;;4976398;28;20368;-71
2022/09/21 07:56:23;;;;;;;;;;;16.60;99.90;;;;;;4987253;28;19913;-71
2022/09/21 07:59:10;;;;;;;;;;;16.70;99.90;;;;;;4993005;28;19981;-78
2022/09/21 08:01:37;;;;;;;;;;;16.80;99.90;;;;;;4971451;28;19918;-72
2022/09/21 08:04:04;;;;;;;;;;;16.90;99.90;;;;;;4994933;28;19905;-72
2022/09/21 08:06:31;;;;;;;;;;;16.90;99.90;;;;;;4993339;28;20146;-71
2022/09/21 08:09:00;;;;;;;;;;;17.00;99.90;;;;;;4991731;28;19913;-71
2022/09/21 08:11:29;;;;;;;;;;;17.00;99.90;;;;;;4994993;28;19906;-72
2022/09/21 08:13:56;;;;;;;;;;;17.00;99.90;;;;;;4994075;28;19913;-72
2022/09/21 08:16:22;;;;;;;;;;;17.20;99.90;;;;;;4976068;28;19913;-73
2022/09/21 08:18:47;;;;;;;;;;;17.30;99.90;;;;;;4975416;28;19906;-72
2022/09/21 08:21:13;;;;;;;;;;;17.30;99.90;;;;;;4993170;28;20414;-71
2022/09/21 08:23:39;;;;;;;;;;;17.20;99.90;;;;;;4993503;28;19909;-72
2022/09/21 08:26:06;;;;;;;;;;;17.40;99.90;;;;;;4992778;28;19912;-72
2022/09/21 08:28:32;;;;;;;;;;;17.40;99.90;;;;;;4992897;28;20000;-71
2022/09/21 08:30:59;;;;;;;;;;;17.60;99.90;;;;;;4984499;28;19918;-71
2022/09/21 08:33:26;;;;;;;;;;;17.60;99.90;;;;;;4990274;28;19909;-71
2022/09/21 08:35:53;;;;;;;;;;;17.50;99.90;;;;;;4987426;28;20257;-71
2022/09/21 08:38:24;;;;;;;;;;;17.50;99.90;;;;;;4975195;28;19909;-71
2022/09/21 08:40:50;;;;;;;;;;;17.60;99.90;;;;;;4993244;28;20073;-72
2022/09/21 08:43:19;;;;;;;;;;;17.70;99.90;;;;;;4975298;28;19909;-72
2022/09/21 08:45:48;;;;;;;;;;;17.80;99.90;;;;;;4992204;28;20000;-71
2022/09/21 08:48:18;;;;;;;;;;;18.00;99.90;;;;;;4993687;28;19913;-72
2022/09/21 08:50:52;;;;;;;;;;;17.80;99.90;;;;;;4990189;28;19913;-72
2022/09/21 08:53:23;;;;;;;;;;;17.80;99.90;;;;;;4984598;28;19914;-73
2022/09/21 08:56:00;;;;;;;;;;;17.70;99.90;;;;;;4971580;28;19914;-71
2022/09/21 08:58:27;;;;;;;;;;;17.80;99.90;;;;;;4987145;28;19916;-73
2022/09/21 09:00:59;;;;;;;;;;;17.80;99.90;;;;;;4992363;28;19910;-72
2022/09/21 09:03:35;;;;;;;;;;;17.70;99.90;;;;;;4972504;28;19942;-72
2022/09/21 09:06:09;;;;;;;;;;;17.70;99.90;;;;;;4992470;28;19984;-71
2022/09/21 09:08:44;;;;;;;;;;;17.70;99.90;;;;;;4993313;28;19936;-71
2022/09/21 09:11:21;;;;;;;;;;;17.70;99.90;;;;;;4992552;28;19945;-71
2022/09/21 09:13:56;;;;;;;;;;;17.90;99.90;;;;;;4995727;28;20320;-72
2022/09/21 09:16:31;;;;;;;;;;;18.00;99.90;;;;;;4985049;28;19921;-71
2022/09/21 09:19:00;;;;;;;;;;;18.10;99.90;;;;;;4996655;28;19988;-73
2022/09/21 09:21:39;;;;;;;;;;;18.20;99.90;;;;;;4978730;28;19910;-72
2022/09/21 09:24:19;;;;;;;;;;;18.20;99.90;;;;;;4996460;28;19910;-72
2022/09/21 09:26:46;;;;;;;;;;;18.30;99.90;;;;;;4994913;28;19972;-72
2022/09/21 09:29:12;;;;;;;;;;;18.30;99.90;;;;;;4978442;28;19918;-71
2022/09/21 09:31:39;;;;;;;;;;;18.20;99.90;;;;;;4993810;28;19916;-72
2022/09/21 09:34:08;;;;;;;;;;;18.00;99.90;;;;;;4997901;28;19906;-71
2022/09/21 09:36:35;;;;;;;;;;;17.80;99.90;;;;;;4995444;28;19913;-73
2022/09/21 09:39:02;;;;;;;;;;;17.80;99.90;;;;;;4978033;28;19909;-71
2022/09/21 09:41:37;;;;;;;;;;;17.80;99.90;;;;;;4994938;28;19949;-73
2022/09/21 09:44:02;;;;;;;;;;;17.80;99.90;;;;;;4993848;28;20004;-72
2022/09/21 09:46:34;;;;;;;;;;;18.00;99.90;;;;;;4995747;28;20398;-76
2022/09/21 09:49:10;;;;;;;;;;;18.10;99.90;;;;;;4996800;28;19916;-72
2022/09/21 09:51:38;;;;;;;;;;;18.30;99.90;;;;;;4995757;28;20264;-72
2022/09/21 09:54:05;;;;;;;;;;;18.40;99.90;;;;;;4996349;28;20103;-71
2022/09/21 09:56:31;;;;;;;;;;;18.60;99.90;;;;;;4995147;28;19924;-72
2022/09/21 09:59:05;;;;;;;;;;;18.40;99.90;;;;;;4994004;28;19909;-72
2022/09/21 10:01:57;;;;;;;;;;;18.50;99.90;;;;;;4994923;28;19910;-72
2022/09/21 10:04:22;;;;;;;;;;;18.50;99.90;;;;;;4996905;28;19949;-71
2022/09/21 10:06:51;;;;;;;;;;;18.60;99.90;;;;;;4995268;28;20441;-72
2022/09/21 10:09:30;;;;;;;;;;;18.60;99.90;;;;;;4975236;28;19936;-72
2022/09/21 10:12:02;;;;;;;;;;;18.60;99.90;;;;;;4994509;28;19910;-71
2022/09/21 10:14:31;;;;;;;;;;;18.60;99.90;;;;;;4990107;28;19985;-73
2022/09/21 10:17:00;;;;;;;;;;;18.60;99.90;;;;;;4991388;28;19917;-72
2022/09/21 10:19:26;;;;;;;;;;;18.60;99.90;;;;;;4997323;28;20331;-73
2022/09/21 10:21:56;;;;;;;;;;;18.60;99.90;;;;;;4996324;28;19909;-73
2022/09/21 10:24:24;;;;;;;;;;;18.80;99.90;;;;;;4996364;28;19964;-73
2022/09/21 10:26:53;;;;;;;;;;;18.50;99.90;;;;;;4994323;28;19910;-73
2022/09/21 10:29:22;;;;;;;;;;;18.60;99.90;;;;;;4994358;28;19921;-73
2022/09/21 10:31:58;;;;;;;;;;;18.50;99.90;;;;;;4994404;28;19913;-73
2022/09/21 10:34:25;;;;;;;;;;;18.60;99.90;;;;;;4987854;28;19943;-72
2022/09/21 10:36:53;;;;;;;;;;;18.80;99.90;;;;;;4988293;28;20019;-72
2022/09/21 10:39:21;;;;;;;;;;;18.50;99.90;;;;;;4994712;28;19909;-73
2022/09/21 10:41:47;;;;;;;;;;;18.40;99.90;;;;;;4994789;28;19960;-71
2022/09/21 10:44:15;;;;;;;;;;;18.40;99.90;;;;;;4976616;28;19932;-72
2022/09/21 10:46:45;;;;;;;;;;;18.60;99.90;;;;;;4977185;28;19925;-73
2022/09/21 10:49:18;;;;;;;;;;;18.70;99.90;;;;;;4990097;28;19980;-71
2022/09/21 10:51:45;;;;;;;;;;;18.60;99.90;;;;;;4990640;28;20384;-72
2022/09/21 10:54:14;;;;;;;;;;;18.70;99.90;;;;;;4995134;28;19917;-72
2022/09/21 10:56:49;;;;;;;;;;;18.80;99.90;;;;;;4974446;28;19968;-71
2022/09/21 10:59:17;;;;;;;;;;;18.80;99.90;;;;;;4988432;28;19910;-72
2022/09/21 11:01:45;;;;;;;;;;;18.60;99.90;;;;;;4994649;28;19972;-71
2022/09/21 11:04:14;;;;;;;;;;;18.60;99.90;;;;;;4992705;28;19953;-78
2022/09/21 11:06:42;;;;;;;;;;;18.60;99.90;;;;;;4990479;28;20237;-73
2022/09/21 11:09:11;;;;;;;;;;;18.60;99.90;;;;;;4998355;28;19932;-71
2022/09/21 11:12:00;;;;;;;;;;;18.80;99.90;;;;;;4991904;28;19910;-72
2022/09/21 11:14:26;;;;;;;;;;;19.00;99.90;;;;;;4959924;28;19917;-72
2022/09/21 11:17:11;;;;;;;;;;;19.10;99.90;;;;;;4976109;28;19914;-71
2022/09/21 11:19:53;;;;;;;;;;;19.10;99.60;;;;;;4988348;28;19910;-71
2022/09/21 11:22:37;;;;;;;;;;;19.00;99.90;;;;;;4963248;28;19956;-71
2022/09/21 11:25:18;;;;;;;;;;;18.90;99.90;;;;;;4986530;28;20536;-74
2022/09/21 11:27:48;;;;;;;;;;;19.00;99.70;;;;;;4991504;28;19949;-71
2022/09/21 11:30:15;;;;;;;;;;;18.80;97.60;;;;;;4995154;28;19905;-72
2022/09/21 11:32:44;;;;;;;;;;;18.80;99.20;;;;;;4992972;28;19937;-72
2022/09/21 11:35:09;;;;;;;;;;;19.00;99.90;;;;;;4992911;28;19982;-73
2022/09/21 11:37:35;;;;;;;;;;;19.20;99.90;;;;;;4991746;28;19953;-70
2022/09/21 11:40:18;;;;;;;;;;;19.30;99.90;;;;;;4976288;28;20173;-71
2022/09/21 11:42:47;;;;;;;;;;;19.40;99.90;;;;;;4992968;28;19917;-73
2022/09/21 11:45:25;;;;;;;;;;;19.30;99.90;;;;;;4990682;28;19913;-71
2022/09/21 11:48:18;;;;;;;;;;;19.30;99.20;;;;;;4993203;28;19917;-74
2022/09/21 11:50:44;;;;;;;;;;;19.30;99.90;;;;;;4991224;28;19925;-71
2022/09/21 11:53:45;;;;;;;;;;;19.30;98.90;;;;;;4992115;28;19941;-71
2022/09/21 11:56:20;;;;;;;;;;;19.30;99.80;;;;;;4886119;29;19920;-71
2022/09/21 11:58:45;;;;;;;;;;;19.40;99.90;;;;;;4975535;28;19971;-71
2022/09/21 12:01:23;;;;;;;;;;;19.40;99.60;;;;;;4992895;28;19956;-72
2022/09/21 12:03:49;;;;;;;;;;;19.60;99.80;;;;;;4993732;28;20399;-72
2022/09/21 12:06:20;;;;;;;;;;;19.70;99.30;;;;;;4988106;28;19920;-71
2022/09/21 12:08:57;;;;;;;;;;;19.70;99.60;;;;;;4992233;28;19914;-71
2022/09/21 12:11:32;;;;;;;;;;;19.80;99.90;;;;;;4986350;28;19971;-71
2022/09/21 12:14:06;;;;;;;;;;;19.80;99.80;;;;;;4992930;28;19909;-71
2022/09/21 12:16:32;;;;;;;;;;;19.70;99.10;;;;;;4992541;28;19910;-71
2022/09/21 12:19:04;;;;;;;;;;;19.60;98.20;;;;;;4994275;28;20004;-72
2022/09/21 12:21:32;;;;;;;;;;;19.40;99.10;;;;;;4990185;28;19909;-70
2022/09/21 12:24:12;;;;;;;;;;;19.30;98.30;;;;;;4992664;28;19976;-71
2022/09/21 12:26:40;;;;;;;;;;;19.30;99.00;;;;;;4992914;28;19909;-71
2022/09/21 12:29:11;;;;;;;;;;;19.60;99.90;;;;;;4994104;28;20260;-72
2022/09/21 12:31:36;;;;;;;;;;;19.80;99.50;;;;;;4988763;28;19922;-74
2022/09/21 12:34:12;;;;;;;;;;;19.80;98.30;;;;;;4993607;28;20117;-72
2022/09/21 12:36:40;;;;;;;;;;;20.00;99.40;;;;;;4993420;28;19941;-70
2022/09/21 12:39:15;;;;;;;;;;;20.00;97.60;;;;;;4990915;28;19910;-71
2022/09/21 12:41:52;;;;;;;;;;;19.60;97.60;;;;;;4991487;28;19957;-71
2022/09/21 12:44:50;;;;;;;;;;;19.50;98.80;;;;;;4974725;28;20430;-71
2022/09/21 12:47:22;;;;;;;;;;;19.50;98.90;;;;;;4984607;28;20380;-71
2022/09/21 12:49:49;;;;;;;;;;;19.90;99.70;;;;;;4993516;28;19945;-72
2022/09/21 12:52:21;;;;;;;;;;;20.10;99.70;;;;;;4984380;28;19910;-71
2022/09/21 12:54:50;;;;;;;;;;;20.30;99.40;;;;;;4994578;28;19910;-71
2022/09/21 12:57:17;;;;;;;;;;;20.20;98.50;;;;;;4985234;28;19958;-71
2022/09/21 12:59:47;;;;;;;;;;;20.20;98.60;;;;;;4994185;28;19910;-72
2022/09/21 13:02:23;;;;;;;;;;;19.90;98.70;;;;;;4987871;28;19917;-71
2022/09/21 13:05:14;;;;;;;;;;;20.10;99.00;;;;;;4975233;28;19956;-71
2022/09/21 13:08:03;;;;;;;;;;;20.20;98.80;;;;;;4988023;28;20272;-72
2022/09/21 13:10:38;;;;;;;;;;;20.20;98.70;;;;;;4992372;28;19984;-71
2022/09/21 13:13:07;;;;;;;;;;;20.00;98.30;;;;;;4993567;28;19917;-70
2022/09/21 13:15:53;;;;;;;;;;;20.00;98.90;;;;;;4990379;28;19968;-72
2022/09/21 13:18:21;;;;;;;;;;;20.10;98.40;;;;;;4985587;28;20205;-71
2022/09/21 13:20:47;;;;;;;;;;;20.00;98.70;;;;;;4991308;28;20285;-70
2022/09/21 13:23:46;;;;;;;;;;;19.90;98.40;;;;;;4987795;28;19930;-71
2022/09/21 13:26:15;;;;;;;;;;;19.90;98.40;;;;;;4942234;28;19956;-71
2022/09/21 13:28:53;;;;;;;;;;;19.80;98.10;;;;;;4986785;28;19917;-72
2022/09/21 13:31:19;;;;;;;;;;;19.80;98.00;;;;;;4968025;28;19917;-70
2022/09/21 13:34:03;;;;;;;;;;;19.80;98.70;;;;;;4990110;28;19909;-71
2022/09/21 13:36:34;;;;;;;;;;;19.90;98.80;;;;;;4982267;28;20288;-71
2022/09/21 13:39:09;;;;;;;;;;;20.10;98.70;;;;;;4987869;28;19909;-71
2022/09/21 13:41:35;;;;;;;;;;;20.30;99.00;;;;;;4994190;28;19916;-71
2022/09/21 13:44:04;;;;;;;;;;;20.30;98.80;;;;;;4990487;28;19909;-71
2022/09/21 13:46:36;;;;;;;;;;;20.20;97.50;;;;;;4964078;28;19941;-71
2022/09/21 13:49:14;;;;;;;;;;;20.00;97.50;;;;;;4987263;28;19914;-71
2022/09/21 13:51:56;;;;;;;;;;;20.00;98.30;;;;;;4987044;28;20052;-71
2022/09/21 13:54:32;;;;;;;;;;;20.00;97.00;;;;;;4981542;28;20352;-70
2022/09/21 13:57:16;;;;;;;;;;;19.90;97.80;;;;;;4991100;28;19975;-70
2022/09/21 13:59:46;;;;;;;;;;;19.90;97.40;;;;;;4994485;28;19910;-71
2022/09/21 14:02:22;;;;;;;;;;;19.90;97.60;;;;;;4995960;28;19948;-71
2022/09/21 14:04:49;;;;;;;;;;;19.90;98.00;;;;;;4987368;28;19914;-70
2022/09/21 14:07:16;;;;;;;;;;;20.10;98.30;;;;;;4974277;28;19920;-71
2022/09/21 14:09:51;;;;;;;;;;;20.00;98.90;;;;;;4995032;28;19914;-72
2022/09/21 14:12:18;;;;;;;;;;;20.00;99.10;;;;;;4992002;28;20356;-71
2022/09/21 14:15:04;;;;;;;;;;;19.90;99.00;;;;;;4993188;28;20233;-72
2022/09/21 14:17:37;;;;;;;;;;;20.10;99.40;;;;;;4989258;28;20292;-72
2022/09/21 14:20:05;;;;;;;;;;;20.10;98.30;;;;;;4994795;28;19913;-71
2022/09/21 14:22:31;;;;;;;;;;;20.10;98.00;;;;;;4994197;28;19914;-71
2022/09/21 14:25:15;;;;;;;;;;;20.10;98.30;;;;;;4994239;28;19910;-71
2022/09/21 14:27:43;;;;;;;;;;;20.10;98.80;;;;;;4995421;28;20394;-70
2022/09/21 14:30:16;;;;;;;;;;;20.00;98.20;;;;;;4993441;28;20342;-71
2022/09/21 14:32:46;;;;;;;;;;;19.90;99.00;;;;;;4994816;28;20332;-72
2022/09/21 14:35:19;;;;;;;;;;;20.10;99.60;;;;;;4972622;28;20340;-71
2022/09/21 14:37:47;;;;;;;;;;;20.20;99.60;;;;;;4973607;28;19910;-71
2022/09/21 14:40:35;;;;;;;;;;;20.40;99.00;;;;;;4993950;28;19910;-72
2022/09/21 14:43:08;;;;;;;;;;;20.50;99.40;;;;;;4995056;28;20378;-71
2022/09/21 14:46:00;;;;;;;;;;;20.40;98.80;;;;;;4987486;28;20324;-71
2022/09/21 14:48:29;;;;;;;;;;;20.20;99.30;;;;;;4989416;28;19917;-71
2022/09/21 14:51:05;;;;;;;;;;;20.30;99.60;;;;;;4993225;28;19910;-71
2022/09/21 14:53:40;;;;;;;;;;;20.30;99.40;;;;;;4994612;28;20470;-72
2022/09/21 14:56:12;;;;;;;;;;;20.50;99.90;;;;;;4992596;28;19921;-71
2022/09/21 14:58:45;;;;;;;;;;;20.50;98.90;;;;;;4999871;28;19913;-72
2022/09/21 15:01:29;;;;;;;;;;;20.50;99.40;;;;;;4999688;28;19913;-72
2022/09/21 15:04:01;;;;;;;;;;;20.50;99.20;;;;;;4993047;28;19913;-71
2022/09/21 15:12:18;;;;;;;;;;;20.40;99.40;;;;;;4995496;28;19967;-72
2022/09/21 15:15:02;;;;;;;;;;;20.20;99.30;;;;;;5006441;28;19909;-71
2022/09/21 15:17:29;;;;;;;;;;;20.10;99.10;;;;;;4987279;28;19909;-71
2022/09/21 15:19:59;;;;;;;;;;;19.90;99.40;;;;;;4975065;28;20355;-71
2022/09/21 15:22:26;;;;;;;;;;;20.00;99.50;;;;;;4976876;28;19913;-72